Share

Avera, GA

3:22 AM EDT on April 23, 2014 (GMT -0400)
Thomson-McDuffie County (KHQU) Elev 499 ft | 33.53 °N, 82.52 °W | Change Station

Current weather conditions updated 7 minutes ago

Clear
Clear
59 °F
Feels Like 59 °F
N
0
Wind Variable Wind from North
Sunrise 6:50 AM
Sunset 8:06 PM
Moon Last Quarter

Today is forecast to be nearly the same temperature as yesterday.

Pressure 29.85 in
Visibility 7.0 miles
Clouds Clear
Dew Point 59 °F
Humidity 100%
Rainfall 0.00 in
Snow Depth Not available.
UV 0 out of 16
Pollen 8.40 out of 12
Air Quality Not available.
Flu Activity Sporadic
METAR KHQU 230715Z AUTO 00000KT 7SM CLR 15/15 A2985 RMK AO1 T01520152

More Conditions Fewer Conditions

Pressure 29.85 in
Visibility 7.0 miles
Clouds Clear
Dew Point 59 °F
Humidity 100%
Rainfall 0.00 in
Snow Depth Not available.
UV 0 out of 16
Pollen 8.40 out of 12
Air Quality Not available.
Flu Activity Sporadic
METAR KHQU 230715Z AUTO 00000KT 7SM CLR 15/15 A2985 RMK AO1 T01520152

More Conditions Fewer Conditions

10-Day Weather Forecast

Almanac

Astronomy

Apr. 23, 2014 Rise Set
Actual Time 6:50 AM EDT 8:06 PM EDT
Civil Twilight 6:24 AM EDT 8:32 PM EDT
Nautical Twilight 5:54 AM EDT 9:03 PM EDT
Astronomical Twilight 5:22 AM EDT 9:35 PM EDT
Moon 3:02 AM EDT 2:31 PM EDT
Length of Visible Light 14h 07m
Length of Day
13h 15m
Tomorrow will be 1m 52s longer.
Last Quarter, 39% of the Moon is Illuminated
Today
Last Quarter
Apr 29
New
May 6
First Quarter
May 14
Full
May 21
Last Quarter

Today's Extremes

State Highs State Lows

Community

  • April Sunset
    April Sunset
  • Waiting..
    Waiting..
  • Sunset...
    Sunset...
  • Happy outdoor day
    Happy outdoor day
  • mystic afternoon....
    mystic afternoon....

WunderPhotos

Upload Photos

1,704,233 photos uploaded!

WunderBlogs® & News

By Dr. Jeff Masters
Director of Meteorology, Weather Underground
By Kari Strenfel
Meteorologist, Weather Underground
By Christopher C. Burt
Weather Historian, Weather Underground
April 23, 2014
April 22, 2014
April 22, 2014

Nearby

Snow Depth

Station Depth Elevation
No new snow has been reported.

Coastal Water Temperatures

Place Temperature
No Stations Reporting

Earthquake Activity

City Distance Mag. Time & Date
No recent earthquake activity has been reported nearby.
Minimum magnitude displayed is 2.5.

Nearby Weather Stations

Station Location Temp. Dew Point Humidity Wind Precip. Elev Updated Type
RAWS LOUISVILLE GA, Louisville, GA 60 °F 59 °F 98% WNW  at  5 mph 0.01 in / hr 311 ft 2:03 AM EDT MADIS

Show More Stations Show Fewer Stations

What do you think?

We're not finished. Please let us know what you like, what you don't like, and what you are still missing.